Time;durP1;ratioP1;P1;durP2;ratioP2;P2;SDS_P1;SDS_P2;PMS_P1;PMS_P2;Temp;Humidity;BMP_temperature;BMP_pressure;BME280_temperature;BME280_humidity;BME280_pressure;Samples;Min_cycle;Max_cycle;Signal;HPM_P1;HPM_P2
2022/12/01 00:01:22;;;;;;;6.57;3.40;;;;;;;5.32;100.00;100975.47;5050100;28;20036;-70
2022/12/01 00:03:48;;;;;;;7.88;4.38;;;;;;;5.25;100.00;100961.41;5050320;28;20025;-70
2022/12/01 00:06:16;;;;;;;6.57;3.65;;;;;;;5.34;100.00;100969.66;5050099;28;20617;-69
2022/12/01 00:11:26;;;;;;;7.57;3.80;;;;;;;5.34;100.00;100963.69;5050354;28;20040;-73
2022/12/01 00:13:52;;;;;;;7.75;3.50;;;;;;;5.27;100.00;100972.63;5068951;28;20402;-71
2022/12/01 00:16:17;;;;;;;8.48;4.20;;;;;;;5.11;100.00;100928.88;5069732;28;20517;-68
2022/12/01 00:18:43;;;;;;;7.70;3.97;;;;;;;5.29;100.00;100960.81;5070048;28;20025;-72
2022/12/01 00:21:13;;;;;;;8.27;4.10;;;;;;;5.09;100.00;100920.22;5069950;28;20028;-69
2022/12/01 00:23:46;;;;;;;7.15;4.28;;;;;;;5.31;100.00;100959.25;5065371;28;20079;-69
2022/12/01 00:26:11;;;;;;;5.68;3.90;;;;;;;5.08;100.00;100909.06;5069884;28;20021;-72
2022/12/01 00:28:37;;;;;;;7.75;4.07;;;;;;;5.26;100.00;100942.69;5069828;28;20032;-72
2022/12/01 00:31:07;;;;;;;7.18;4.03;;;;;;;5.25;100.00;100940.91;5069657;28;20021;-72
2022/12/01 00:33:33;;;;;;;;;;;;;;;5.26;100.00;100949.47;5052501;28;20043;-68
2022/12/01 00:35:59;;;;;;;7.53;4.10;;;;;;;5.28;100.00;100960.72;5060075;28;20367;-72
2022/12/01 00:38:25;;;;;;;15.85;5.88;;;;;;;5.33;100.00;100951.66;5049772;28;20024;-69
2022/12/01 00:40:50;;;;;;;19.42;6.13;;;;;;;5.29;100.00;100942.00;5049948;28;20448;-71
2022/12/01 00:43:16;;;;;;;10.95;4.85;;;;;;;5.29;100.00;100947.13;5049718;28;20032;-74
2022/12/01 00:45:42;;;;;;;21.77;6.30;;;;;;;5.32;100.00;100952.44;5016886;28;20391;-70
2022/12/01 00:48:27;;;;;;;29.92;9.30;;;;;;;5.40;100.00;100952.97;5067108;28;20429;-71
2022/12/01 00:50:53;;;;;;;15.35;6.20;;;;;;;5.18;100.00;100910.56;5013255;28;20048;-76
2022/12/01 00:53:19;;;;;;;9.40;4.68;;;;;;;5.35;100.00;100934.72;5011822;28;20068;-73
2022/12/01 00:55:45;;;;;;;10.40;5.05;;;;;;;5.20;100.00;100914.13;5011455;28;20079;-73
2022/12/01 00:58:10;;;;;;;41.85;9.18;;;;;;;5.32;100.00;100925.19;5011288;28;20455;-71
2022/12/01 01:00:39;;;;;;;22.30;6.18;;;;;;;5.40;100.00;100937.59;5025204;28;20045;-70
2022/12/01 01:03:06;;;;;;;21.73;7.35;;;;;;;5.35;100.00;100915.13;5031263;28;20064;-74
2022/12/01 01:05:39;;;;;;;10.38;4.85;;;;;;;5.38;100.00;100917.00;5031254;28;20049;-71
2022/12/01 01:08:08;;;;;;;13.93;4.95;;;;;;;5.44;100.00;100925.06;5031196;28;20025;-69
2022/12/01 01:10:38;;;;;;;9.63;4.68;;;;;;;5.44;100.00;100919.94;5030530;28;20060;-72
2022/12/01 01:13:03;;;;;;;11.65;4.80;;;;;;;5.43;100.00;100922.41;5030484;28;20541;-75
2022/12/01 01:15:29;;;;;;;5.72;3.67;;;;;;;5.39;100.00;100920.47;5000392;28;20057;-74
2022/12/01 01:17:54;;;;;;;6.53;3.80;;;;;;;5.30;100.00;100910.50;5000768;28;20071;-72
2022/12/01 01:20:20;;;;;;;7.40;3.70;;;;;;;5.33;100.00;100919.28;5030638;28;20041;-73
2022/12/01 01:22:45;;;;;;;8.02;3.72;;;;;;;5.03;100.00;100869.50;5067109;28;20040;-72
2022/12/01 01:25:11;;;;;;;12.18;5.03;;;;;;;5.20;100.00;100909.00;5072988;28;20035;-70
2022/12/01 01:27:36;;;;;;;12.65;5.60;;;;;;;5.14;100.00;100888.13;5073486;28;20029;-70
2022/12/01 01:30:02;;;;;;;9.85;4.45;;;;;;;5.33;100.00;100916.72;5070526;28;20021;-76
2022/12/01 01:32:28;;;;;;;6.90;4.00;;;;;;;5.34;100.00;100912.47;5052916;28;20108;-70
2022/12/01 01:34:53;;;;;;;7.80;4.32;;;;;;;5.06;100.00;100863.69;5052967;28;20152;-70
2022/12/01 01:37:19;;;;;;;11.65;4.93;;;;;;;5.26;100.00;100898.28;5053348;28;20390;-69
2022/12/01 01:39:44;;;;;;;7.60;4.30;;;;;;;5.35;100.00;100907.44;5052966;28;20479;-73
2022/12/01 01:42:13;;;;;;;9.60;3.83;;;;;;;5.31;100.00;100904.59;5052735;28;20108;-70
2022/12/01 01:44:55;;;;;;;9.73;4.40;;;;;;;5.33;100.00;100900.44;5053367;28;20087;-75
2022/12/01 01:47:33;;;;;;;6.38;3.85;;;;;;;5.14;100.00;100862.53;5055044;28;20040;-72
2022/12/01 01:50:05;;;;;;;11.30;4.65;;;;;;;5.30;100.00;100890.91;5062691;28;20376;-69
2022/12/01 01:52:34;;;;;;;13.75;5.90;;;;;;;5.14;100.00;100868.53;5052487;28;20037;-69
2022/12/01 01:55:00;;;;;;;20.67;7.40;;;;;;;5.30;100.00;100885.78;5052660;28;20479;-74
2022/12/01 01:57:32;;;;;;;6.30;4.43;;;;;;;5.28;100.00;100889.03;5052893;28;20036;-71
2022/12/01 02:00:03;;;;;;;6.13;4.07;;;;;;;5.22;100.00;100892.09;5042282;28;20030;-69
2022/12/01 02:02:29;;;;;;;7.75;4.38;;;;;;;5.16;100.00;100884.00;5057500;28;20021;-71
2022/12/01 02:05:00;;;;;;;8.32;4.82;;;;;;;5.12;100.00;100869.22;5052196;28;20029;-70
2022/12/01 02:07:25;;;;;;;8.80;5.03;;;;;;;5.15;100.00;100874.56;5052543;28;20021;-72
2022/12/01 02:09:53;;;;;;;8.43;4.78;;;;;;;5.15;100.00;100878.00;5052538;28;20400;-69
2022/12/01 02:12:27;;;;;;;7.70;4.60;;;;;;;4.83;100.00;100832.38;5052580;28;20028;-70
2022/12/01 02:15:44;;;;;;;10.27;5.30;;;;;;;5.01;100.00;100878.78;5052246;28;20037;-73
2022/12/01 02:18:16;;;;;;;9.40;4.57;;;;;;;4.93;100.00;100868.00;5010086;28;20042;-70
2022/12/01 02:20:51;;;;;;;9.23;5.10;;;;;;;4.96;100.00;100881.03;5010160;28;20041;-69
2022/12/01 02:23:35;;;;;;;10.52;4.75;;;;;;;4.96;100.00;100886.16;5009906;28;20026;-70
2022/12/01 02:26:15;;;;;;;9.32;5.10;;;;;;;5.00;100.00;100872.75;5009944;28;20053;-69
2022/12/01 02:29:08;;;;;;;8.35;4.78;;;;;;;4.96;100.00;100869.88;5010020;28;20041;-70
2022/12/01 02:31:50;;;;;;;7.43;4.65;;;;;;;4.86;100.00;100865.84;5009960;28;20560;-69
2022/12/01 02:34:31;;;;;;;10.43;5.03;;;;;;;4.59;100.00;100829.97;5009461;28;20550;-73
2022/12/01 02:37:21;;;;;;;7.40;4.82;;;;;;;4.85;100.00;100874.31;5009741;28;20034;-69
2022/12/01 02:39:55;;;;;;;8.57;5.63;;;;;;;4.71;100.00;100847.81;4905832;29;20155;-70
2022/12/01 02:42:49;;;;;;;9.07;4.88;;;;;;;4.63;100.00;100836.19;4931900;29;20043;-71
2022/12/01 02:45:47;;;;;;;7.82;4.88;;;;;;;4.67;100.00;100848.38;4932151;29;20091;-71
2022/12/01 02:48:26;;;;;;;9.75;5.43;;;;;;;4.74;100.00;100852.25;4916422;29;20036;-70
2022/12/01 02:50:55;;;;;;;12.55;5.70;;;;;;;4.79;100.00;100856.00;4932074;29;20058;-74
2022/12/01 02:53:20;;;;;;;10.50;6.03;;;;;;;4.73;100.00;100851.34;4938885;29;20027;-73
2022/12/01 02:55:55;;;;;;;10.75;5.93;;;;;;;4.80;100.00;100850.09;4962210;28;20038;-75
2022/12/01 02:58:21;;;;;;;21.27;7.05;;;;;;;4.78;100.00;100849.09;4969925;28;20117;-71
2022/12/01 03:01:17;;;;;;;13.32;6.15;;;;;;;4.80;100.00;100858.66;4963863;28;20041;-74
2022/12/01 03:03:50;;;;;;;7.78;5.18;;;;;;;4.74;100.00;100863.34;4941609;29;20350;-67
2022/12/01 03:06:37;;;;;;;8.15;4.97;;;;;;;4.66;100.00;100841.50;4931731;29;20036;-70
2022/12/01 03:09:12;;;;;;;25.00;7.05;;;;;;;4.69;100.00;100863.03;4927136;29;20083;-69
2022/12/01 03:11:48;;;;;;;9.68;4.80;;;;;;;4.47;100.00;100816.38;4931805;29;20039;-70
2022/12/01 03:14:27;;;;;;;15.45;5.65;;;;;;;4.73;100.00;100858.16;4944256;29;20082;-70
2022/12/01 03:16:53;;;;;;;10.98;5.40;;;;;;;4.78;100.00;100864.44;4979204;28;20160;-71
2022/12/01 03:19:34;;;;;;;17.27;6.43;;;;;;;4.77;100.00;100866.13;5007587;28;20061;-72
2022/12/01 03:22:08;;;;;;;8.80;4.75;;;;;;;4.73;100.00;100842.81;5009435;28;20544;-68
2022/12/01 03:24:35;;;;;;;12.13;5.53;;;;;;;4.79;100.00;100856.88;5009177;28;20045;-69
2022/12/01 03:27:03;;;;;;;26.40;8.85;;;;;;;4.67;100.00;100846.72;5009267;28;20626;-70
2022/12/01 03:29:42;;;;;;;15.60;6.38;;;;;;;4.83;100.00;100861.41;5009486;28;20030;-74
2022/12/01 03:32:19;;;;;;;41.15;11.45;;;;;;;4.81;100.00;100854.41;5009128;28;20036;-69
2022/12/01 03:34:51;;;;;;;32.95;9.25;;;;;;;4.81;100.00;100841.63;5008736;28;20145;-70
2022/12/01 03:37:24;;;;;;;38.08;11.40;;;;;;;4.82;100.00;100861.31;5009090;28;20037;-70
2022/12/01 03:39:53;;;;;;;50.90;12.18;;;;;;;4.85;100.00;100858.97;5019385;28;20040;-69
2022/12/01 03:42:28;;;;;;;33.45;10.32;;;;;;;4.83;100.00;100868.19;5052953;28;20036;-69
2022/12/01 03:44:57;;;;;;;48.97;14.23;;;;;;;4.82;100.00;100866.41;5070842;28;20029;-70
2022/12/01 03:47:28;;;;;;;50.60;13.02;;;;;;;4.78;100.00;100867.00;5071134;28;20043;-70
2022/12/01 03:49:54;;;;;;;30.90;9.20;;;;;;;4.75;100.00;100861.66;5070936;28;20123;-70
2022/12/01 03:52:35;;;;;;;35.05;8.98;;;;;;;4.75;100.00;100872.81;5070792;28;20028;-71
2022/12/01 03:55:10;;;;;;;10.57;5.28;;;;;;;4.75;100.00;100872.81;5070838;28;20054;-70
2022/12/01 03:58:02;;;;;;;28.40;8.77;;;;;;;4.67;100.00;100874.84;5070988;28;20029;-70
2022/12/01 04:00:30;;;;;;;8.43;4.22;;;;;;;4.62;100.00;100871.13;4969720;28;20078;-70
2022/12/01 04:02:57;;;;;;;13.30;4.82;;;;;;;4.61;100.00;100869.34;4967239;28;20409;-74
2022/12/01 04:05:25;;;;;;;38.25;9.20;;;;;;;4.63;100.00;100870.31;4969377;28;20137;-69
2022/12/01 04:07:50;;;;;;;32.28;7.75;;;;;;;4.65;100.00;100871.31;4963572;28;20083;-70
2022/12/01 04:10:16;;;;;;;13.68;4.70;;;;;;;4.67;100.00;100872.31;4951045;28;20540;-70
2022/12/01 04:12:41;;;;;;;10.20;4.35;;;;;;;4.48;100.00;100846.28;4969526;28;20062;-71
2022/12/01 04:15:11;;;;;;;22.73;6.72;;;;;;;4.68;100.00;100873.19;4969625;28;20061;-70
2022/12/01 04:17:37;;;;;;;17.48;5.70;;;;;;;4.67;100.00;100876.50;4955309;28;20074;-71
2022/12/01 04:20:05;;;;;;;18.95;5.20;;;;;;;4.65;100.00;100871.31;4950137;29;20077;-71
2022/12/01 04:22:31;;;;;;;13.68;4.05;;;;;;;4.69;100.00;100873.28;4950127;29;20069;-71
2022/12/01 04:24:56;;;;;;;28.83;7.85;;;;;;;4.48;100.00;100825.81;4949879;28;20074;-70
2022/12/01 04:27:21;;;;;;;22.27;7.90;;;;;;;4.51;100.00;100837.13;4950060;29;20521;-71
2022/12/01 04:29:47;;;;;;;24.05;6.25;;;;;;;4.78;100.00;100882.34;4949927;29;20130;-75
2022/12/01 04:32:12;;;;;;;29.30;7.63;;;;;;;4.70;100.00;100874.19;4950195;29;20060;-71
2022/12/01 04:34:38;;;;;;;19.80;6.22;;;;;;;4.58;100.00;100853.75;4949780;29;20078;-70
2022/12/01 04:37:04;;;;;;;25.45;6.70;;;;;;;4.70;100.00;100876.72;4984025;28;20037;-70
2022/12/01 04:39:30;;;;;;;6.93;2.85;;;;;;;4.73;100.00;100893.97;5030201;28;20496;-70
2022/12/01 04:41:56;;;;;;;9.95;3.72;;;;;;;4.71;100.00;100901.53;5049152;28;20058;-71
2022/12/01 04:44:21;;;;;;;19.33;5.95;;;;;;;4.45;100.00;100864.84;5049308;28;20091;-70
2022/12/01 04:46:46;;;;;;;9.50;3.80;;;;;;;4.72;100.00;100904.97;5050045;28;20075;-71
2022/12/01 04:49:12;;;;;;;24.23;6.60;;;;;;;4.64;100.00;100905.31;5050040;28;20025;-73
2022/12/01 04:51:37;;;;;;;23.00;6.20;;;;;;;4.66;100.00;100902.88;5050057;28;20142;-70
2022/12/01 04:54:04;;;;;;;32.80;8.23;;;;;;;4.67;100.00;100904.66;5050189;28;20021;-69
2022/12/01 04:56:30;;;;;;;25.50;7.22;;;;;;;4.65;100.00;100909.66;5050220;28;20171;-73
2022/12/01 04:58:57;;;;;;;21.45;5.78;;;;;;;4.43;100.00;100868.09;5050164;28;20100;-70
2022/12/01 05:01:23;;;;;;;11.75;4.38;;;;;;;4.60;100.00;100903.34;5050275;28;20032;-70
2022/12/01 05:03:48;;;;;;;33.45;9.60;;;;;;;4.59;100.00;100906.69;5049859;28;20029;-74
2022/12/01 05:06:17;;;;;;;11.80;4.60;;;;;;;4.26;100.00;100860.16;5049836;28;20052;-70
2022/12/01 05:08:43;;;;;;;14.18;4.40;;;;;;;4.44;100.00;100891.19;5050240;28;20029;-76
2022/12/01 05:11:10;;;;;;;14.88;5.15;;;;;;;4.46;100.00;100906.63;5048163;28;20037;-73
2022/12/01 05:13:38;;;;;;;23.17;5.65;;;;;;;4.53;100.00;100911.38;5040830;28;20040;-70
2022/12/01 05:16:08;;;;;;;15.30;5.85;;;;;;;4.50;100.00;100909.50;5043625;28;20463;-74
2022/12/01 05:18:34;;;;;;;;;;;;;;;4.49;100.00;100910.28;5036877;28;20037;-74
2022/12/01 05:20:59;;;;;;;26.20;6.13;;;;;;;4.46;100.00;100911.75;5030198;28;19971;-70
2022/12/01 05:23:26;;;;;;;36.58;8.85;;;;;;;4.46;100.00;100912.66;5030019;28;20028;-70
2022/12/01 05:25:52;;;;;;;9.85;3.65;;;;;;;4.48;100.00;100907.63;5029908;28;20152;-70
2022/12/01 05:28:18;;;;;;;9.07;3.85;;;;;;;4.37;100.00;100891.53;5029916;28;20045;-71
2022/12/01 05:30:44;;;;;;;14.00;3.78;;;;;;;4.50;100.00;100906.94;5028647;28;20439;-71
2022/12/01 05:33:10;;;;;;;6.90;2.47;;;;;;;4.42;100.00;100902.09;5033236;28;20045;-71
2022/12/01 05:35:39;;;;;;;6.90;3.22;;;;;;;4.43;100.00;100901.31;5056651;28;20114;-68
2022/12/01 05:38:04;;;;;;;15.37;3.60;;;;;;;4.45;100.00;100912.50;5060054;28;20032;-75
2022/12/01 05:40:29;;;;;;;11.93;3.30;;;;;;;4.43;100.00;100909.88;5073469;28;20328;-73
2022/12/01 05:42:56;;;;;;;23.80;7.63;;;;;;;4.47;100.00;100916.06;5073350;28;20406;-72
2022/12/01 05:45:21;;;;;;;26.40;7.35;;;;;;;4.50;100.00;100911.19;5073236;28;20372;-68
2022/12/01 05:47:47;;;;;;;11.65;4.45;;;;;;;4.30;100.00;100874.91;5073181;28;20040;-68
2022/12/01 05:50:12;;;;;;;21.58;6.10;;;;;;;4.53;100.00;100913.94;5037435;28;20515;-68
2022/12/01 05:52:38;;;;;;;34.60;8.27;;;;;;;4.30;100.00;100874.91;5072956;28;20033;-69
2022/12/01 05:55:04;;;;;;;37.20;7.97;;;;;;;4.52;100.00;100917.28;5073254;28;20032;-69
2022/12/01 05:57:30;;;;;;;15.60;4.30;;;;;;;4.53;100.00;100922.47;5071024;28;20028;-69
2022/12/01 05:59:56;;;;;;;15.90;3.42;;;;;;;4.56;100.00;100916.72;5072891;28;20116;-70
2022/12/01 06:02:22;;;;;;;14.38;4.18;;;;;;;4.58;100.00;100919.38;5055966;28;20100;-69
2022/12/01 06:04:47;;;;;;;11.02;3.45;;;;;;;4.47;100.00;100916.06;5053033;28;20494;-70
2022/12/01 06:07:12;;;;;;;19.10;4.68;;;;;;;4.50;100.00;100918.84;5052862;28;20061;-70
2022/12/01 06:09:38;;;;;;;20.02;4.50;;;;;;;4.48;100.00;100922.97;5052759;28;20033;-70
2022/12/01 06:12:03;;;;;;;25.05;4.43;;;;;;;4.50;100.00;100931.66;5056138;28;20059;-69
2022/12/01 06:14:29;;;;;;;20.60;4.13;;;;;;;4.52;100.00;100924.94;5071588;28;20039;-70
2022/12/01 06:16:54;;;;;;;16.00;4.40;;;;;;;4.11;100.00;100856.53;5072477;28;20048;-72
2022/12/01 06:19:20;;;;;;;22.40;4.85;;;;;;;4.49;100.00;100929.88;5072385;28;20450;-70
2022/12/01 06:21:45;;;;;;;17.05;4.72;;;;;;;4.51;100.00;100928.28;5069241;28;20025;-73
2022/12/01 06:24:10;;;;;;;17.35;4.15;;;;;;;4.47;100.00;100929.72;5052505;28;20033;-70
2022/12/01 06:26:36;;;;;;;16.60;3.70;;;;;;;4.52;100.00;100924.94;5052293;28;20056;-69
2022/12/01 06:29:01;;;;;;;14.30;4.32;;;;;;;4.56;100.00;100926.03;5052234;28;20040;-70
2022/12/01 06:31:27;;;;;;;17.90;4.07;;;;;;;4.49;100.00;100923.06;5071398;28;20452;-71
2022/12/01 06:33:52;;;;;;;17.27;4.78;;;;;;;4.24;100.00;100886.38;5069931;28;20043;-77
2022/12/01 06:36:18;;;;;;;15.60;3.63;;;;;;;4.50;100.00;100923.97;5072100;28;20029;-73
2022/12/01 06:38:43;;;;;;;15.57;3.80;;;;;;;4.48;100.00;100925.53;5055479;28;20070;-74
2022/12/01 06:41:08;;;;;;;17.17;3.75;;;;;;;4.41;100.00;100921.66;5068191;28;20020;-74
2022/12/01 06:43:36;;;;;;;12.57;3.90;;;;;;;4.45;100.00;100938.09;5068859;28;20063;-72
2022/12/01 06:46:03;;;;;;;16.02;4.10;;;;;;;4.48;100.00;100930.63;5063880;28;20036;-77
2022/12/01 06:48:29;;;;;;;22.90;5.13;;;;;;;4.26;100.00;100918.03;5056557;28;20384;-72
2022/12/01 06:50:59;;;;;;;25.08;3.83;;;;;;;4.26;100.00;100911.28;5057235;28;20565;-71
2022/12/01 06:53:26;;;;;;;;;;;;;;;4.42;100.00;100930.22;5059620;28;20037;-71
2022/12/01 06:55:51;;;;;;;19.13;4.35;;;;;;;4.04;100.00;100860.34;5051114;28;20417;-72
2022/12/01 06:58:17;;;;;;;9.32;4.05;;;;;;;4.38;100.00;100924.88;5051392;28;20029;-70
2022/12/01 07:00:42;;;;;;;12.57;3.88;;;;;;;4.25;100.00;100908.59;5050710;28;20033;-70
2022/12/01 07:03:08;;;;;;;16.25;5.13;;;;;;;4.42;100.00;100923.41;5052040;28;20037;-70
2022/12/01 07:05:33;;;;;;;14.40;4.63;;;;;;;4.34;100.00;100904.13;5051225;28;20446;-73
2022/12/01 07:07:59;;;;;;;17.60;4.80;;;;;;;4.43;100.00;100924.31;5056937;28;20035;-70
2022/12/01 07:10:26;;;;;;;19.27;4.32;;;;;;;4.35;100.00;100917.00;5067114;28;20123;-72
2022/12/01 07:12:52;;;;;;;15.30;3.97;;;;;;;4.37;100.00;100924.78;5070599;28;20021;-71
2022/12/01 07:15:17;;;;;;;16.05;4.40;;;;;;;4.44;100.00;100936.34;5070219;28;20402;-69
2022/12/01 07:17:43;;;;;;;15.55;3.90;;;;;;;4.36;100.00;100934.13;5069294;28;20382;-68
2022/12/01 07:20:09;;;;;;;18.52;4.55;;;;;;;4.38;100.00;100944.44;5070098;28;20034;-69
2022/12/01 07:22:35;;;;;;;19.98;4.75;;;;;;;4.26;100.00;100911.28;5070611;28;20048;-68
2022/12/01 07:25:00;;;;;;;32.00;6.10;;;;;;;4.40;100.00;100934.31;5070075;28;20063;-71
2022/12/01 07:27:30;;;;;;;23.25;5.50;;;;;;;4.41;100.00;100920.75;5070153;28;20021;-70
2022/12/01 07:29:55;;;;;;;;;;;;;;;4.44;100.00;100933.78;5070479;28;20632;-73
2022/12/01 07:32:21;;;;;;;27.77;6.05;;;;;;;4.07;100.00;100875.00;5069940;28;20011;-71
2022/12/01 07:34:46;;;;;;;27.10;6.07;;;;;;;4.34;100.00;100915.22;5070464;28;20055;-71
2022/12/01 07:37:12;;;;;;;31.75;6.88;;;;;;;4.43;100.00;100930.31;5056904;28;20087;-69
2022/12/01 07:39:37;;;;;;;36.67;7.50;;;;;;;4.39;100.00;100915.56;5050812;28;20445;-74
2022/12/01 07:42:03;;;;;;;25.85;5.78;;;;;;;4.42;100.00;100922.53;5050328;28;20051;-70
2022/12/01 07:44:28;;;;;;;42.55;8.73;;;;;;;4.48;100.00;100930.63;5058998;28;20040;-73
2022/12/01 07:46:54;;;;;;;25.00;6.70;;;;;;;4.45;100.00;100938.09;5051025;28;20033;-70
2022/12/01 07:49:19;;;;;;;42.78;9.85;;;;;;;4.45;100.00;100925.28;5065737;28;20058;-69
2022/12/01 07:51:44;;;;;;;22.95;7.45;;;;;;;4.25;100.00;100889.06;5070816;28;20685;-70
2022/12/01 07:54:13;;;;;;;60.95;10.65;;;;;;;4.19;100.00;100892.06;5070925;28;20031;-70
2022/12/01 07:56:38;;;;;;;58.53;10.45;;;;;;;4.19;100.00;100892.06;5070466;28;20029;-74
2022/12/01 07:59:04;;;;;;;24.90;5.22;;;;;;;4.46;100.00;100933.09;5052229;28;20093;-70
2022/12/01 08:01:29;;;;;;;24.85;5.85;;;;;;;4.27;100.00;100919.81;5070473;28;20020;-69
2022/12/01 08:03:57;;;;;;;23.63;5.78;;;;;;;4.26;100.00;100908.72;5070597;28;20027;-69
2022/12/01 08:06:23;;;;;;;18.58;5.30;;;;;;;4.44;100.00;100947.44;5070481;28;20417;-70
2022/12/01 08:08:49;;;;;;;28.83;7.18;;;;;;;4.45;100.00;100940.63;5070312;28;20074;-69
2022/12/01 08:11:28;;;;;;;34.58;7.57;;;;;;;4.43;100.00;100935.44;5070521;28;20021;-72
2022/12/01 08:13:53;;;;;;;28.55;6.80;;;;;;;4.18;100.00;100904.72;5070557;28;20032;-69
2022/12/01 08:16:21;;;;;;;12.30;3.83;;;;;;;4.43;100.00;100949.91;5070420;28;20474;-72
2022/12/01 08:18:47;;;;;;;18.08;5.18;;;;;;;4.38;100.00;100947.88;5070470;28;20024;-69
2022/12/01 08:21:16;;;;;;;8.20;4.10;;;;;;;4.14;100.00;100907.88;5070308;28;20464;-69
2022/12/01 08:23:42;;;;;;;9.15;2.85;;;;;;;4.35;100.00;100947.69;5049603;28;20071;-69
2022/12/01 08:26:16;;;;;;;5.47;2.10;;;;;;;4.16;100.00;100899.53;5069947;28;20511;-69
2022/12/01 08:28:42;;;;;;;4.03;1.85;;;;;;;4.43;100.00;100942.22;5070405;28;20024;-69
2022/12/01 08:31:14;;;;;;;7.22;2.15;;;;;;;4.40;100.00;100944.56;5070181;28;20470;-73
2022/12/01 08:33:39;;;;;;;20.05;5.93;;;;;;;4.35;100.00;100940.00;5070420;28;20069;-69
2022/12/01 08:36:06;;;;;;;20.33;4.47;;;;;;;4.45;100.00;100932.97;5070440;28;20048;-69
2022/12/01 08:38:32;;;;;;;27.88;6.38;;;;;;;4.30;100.00;100894.47;5070339;28;20068;-70
2022/12/01 08:41:02;;;;;;;17.25;5.07;;;;;;;4.48;100.00;100931.50;5070244;28;20051;-69
2022/12/01 08:43:28;;;;;;;17.27;5.13;;;;;;;4.50;100.00;100931.66;5069667;28;20020;-69
2022/12/01 08:46:00;;;;;;;12.20;3.88;;;;;;;4.49;100.00;100925.63;5070324;28;20402;-69
2022/12/01 08:48:28;;;;;;;7.03;2.22;;;;;;;4.42;100.00;100931.09;5070130;28;20037;-74
2022/12/01 08:51:01;;;;;;;8.50;3.17;;;;;;;4.47;100.00;100923.75;5069936;28;20090;-69
2022/12/01 08:53:27;;;;;;;19.35;4.70;;;;;;;4.20;100.00;100877.63;5070058;28;20122;-69
2022/12/01 08:55:52;;;;;;;26.05;6.00;;;;;;;4.46;100.00;100920.31;5069795;28;20111;-70
2022/12/01 08:58:18;;;;;;;35.83;6.43;;;;;;;4.47;100.00;100921.19;5069999;28;20025;-69
2022/12/01 09:00:44;;;;;;;20.58;5.13;;;;;;;4.23;100.00;100874.41;5069939;28;20024;-68
2022/12/01 09:03:09;;;;;;;6.85;2.55;;;;;;;4.44;100.00;100911.66;5069999;28;20033;-69
2022/12/01 09:05:34;;;;;;;19.27;5.30;;;;;;;4.37;100.00;100907.78;5070070;28;20024;-69
2022/12/01 09:10:51;;;;;;;11.40;2.78;;;;;;;4.31;100.00;100889.47;5071448;28;20516;-70
2022/12/01 09:13:16;;;;;;;19.90;4.65;;;;;;;4.41;100.00;100908.91;5073818;28;20021;-69
2022/12/01 09:15:41;;;;;;;31.38;5.55;;;;;;;4.22;100.00;100876.03;5073905;28;20394;-70
2022/12/01 09:18:07;;;;;;;10.23;3.00;;;;;;;4.43;100.00;100896.22;5073873;28;20074;-72
2022/12/01 09:20:32;;;;;;;21.55;5.90;;;;;;;4.44;100.00;100901.41;5021388;28;20040;-70
2022/12/01 09:22:58;;;;;;;22.02;5.85;;;;;;;4.46;100.00;100904.97;5073551;28;20028;-69
2022/12/01 09:25:24;;;;;;;16.35;4.45;;;;;;;4.46;100.00;100901.50;5073876;28;20103;-70
2022/12/01 09:27:50;;;;;;;27.70;6.20;;;;;;;4.46;100.00;100893.84;5073659;28;20030;-71
2022/12/01 09:30:16;;;;;;;28.88;6.93;;;;;;;4.48;100.00;100893.16;5073369;28;20397;-73
2022/12/01 09:32:41;;;;;;;18.92;5.47;;;;;;;4.52;100.00;100890.06;5073400;28;20032;-70
2022/12/01 09:35:07;;;;;;;10.07;3.22;;;;;;;4.53;100.00;100889.25;5073627;28;20056;-70
2022/12/01 09:37:32;;;;;;;4.35;1.90;;;;;;;4.53;100.00;100885.81;5073564;28;20438;-71
2022/12/01 09:39:57;;;;;;;7.80;2.80;;;;;;;4.52;100.00;100889.16;5073289;28;20032;-70
2022/12/01 09:42:26;;;;;;;26.70;6.93;;;;;;;4.25;100.00;100845.59;5073230;28;20035;-70
2022/12/01 09:44:59;;;;;;;18.90;5.28;;;;;;;4.46;100.00;100874.28;5073114;28;20032;-70
2022/12/01 09:47:38;;;;;;;18.95;4.35;;;;;;;4.45;100.00;100879.28;5073400;28;20029;-70
2022/12/01 09:50:11;;;;;;;7.63;2.40;;;;;;;4.40;100.00;100858.53;5073261;28;20032;-75
2022/12/01 09:52:49;;;;;;;6.18;2.25;;;;;;;4.45;100.00;100866.50;5073082;28;20406;-73
2022/12/01 09:55:18;;;;;;;6.95;2.50;;;;;;;4.49;100.00;100868.50;5072964;28;20384;-73
2022/12/01 09:57:47;;;;;;;2.67;1.95;;;;;;;4.36;100.00;100849.78;5071735;28;20136;-72
2022/12/01 10:00:16;;;;;;;5.85;2.30;;;;;;;4.51;100.00;100861.81;5073114;28;20032;-69
2022/12/01 10:02:49;;;;;;;11.60;3.50;;;;;;;4.52;100.00;100861.03;5073100;28;20041;-70
2022/12/01 10:05:19;;;;;;;4.80;2.10;;;;;;;4.56;100.00;100864.69;5072731;28;20029;-70
2022/12/01 10:08:07;;;;;;;19.30;4.15;;;;;;;4.57;100.00;100849.44;5072787;28;20411;-70
2022/12/01 10:10:37;;;;;;;17.83;5.03;;;;;;;4.64;100.00;100864.41;5072070;28;20044;-72
2022/12/01 10:13:15;;;;;;;27.40;7.63;;;;;;;4.62;100.00;100845.53;5073135;28;20025;-71
2022/12/01 10:15:53;;;;;;;15.15;3.90;;;;;;;4.70;100.00;100853.72;5072894;28;20036;-71
2022/12/01 10:18:41;;;;;;;15.77;4.72;;;;;;;4.69;100.00;100860.47;5072776;28;20131;-73
2022/12/01 10:21:17;;;;;;;53.83;11.30;;;;;;;4.70;100.00;100853.72;5072103;28;20031;-76
2022/12/01 10:23:51;;;;;;;6.72;3.15;;;;;;;4.70;100.00;100849.47;5072668;28;20035;-72
2022/12/01 10:26:27;;;;;;;7.90;2.75;;;;;;;4.66;100.00;100847.50;5072320;28;20016;-70
2022/12/01 10:29:19;;;;;;;10.55;3.45;;;;;;;4.66;100.00;100842.41;5072219;28;20025;-74
2022/12/01 10:31:57;;;;;;;15.35;4.22;;;;;;;4.69;100.00;100847.69;4990705;28;20043;-72
2022/12/01 10:34:28;;;;;;;10.77;3.00;;;;;;;4.68;100.00;100847.59;4990347;28;20587;-73
2022/12/01 10:36:54;;;;;;;21.35;7.13;;;;;;;4.69;100.00;100852.81;4990599;28;20039;-70
2022/12/01 10:39:45;;;;;;;7.43;3.33;;;;;;;4.73;100.00;100850.47;4990412;28;20062;-69
2022/12/01 10:42:30;;;;;;;19.77;5.53;;;;;;;4.48;100.00;100810.47;4990364;28;20048;-74
2022/12/01 10:44:59;;;;;;;9.85;3.97;;;;;;;4.73;100.00;100845.34;4973064;28;20077;-69
2022/12/01 10:47:26;;;;;;;34.40;9.18;;;;;;;4.55;100.00;100817.78;4989619;28;20030;-69
2022/12/01 10:49:52;;;;;;;35.50;9.82;;;;;;;4.78;100.00;100857.66;4989749;28;20408;-69
2022/12/01 10:52:39;;;;;;;41.97;8.63;;;;;;;4.83;100.00;100857.97;4990080;28;20038;-72
2022/12/01 10:55:28;;;;;;;31.95;8.25;;;;;;;4.85;100.00;100856.41;4948865;28;20532;-70
2022/12/01 10:57:56;;;;;;;28.77;7.80;;;;;;;4.83;100.00;100856.28;4987851;28;20033;-71
2022/12/01 11:00:22;;;;;;;33.65;8.10;;;;;;;4.86;100.00;100847.94;4989655;28;20034;-76
2022/12/01 11:02:47;;;;;;;43.05;12.05;;;;;;;4.89;100.00;100844.72;4989802;28;20043;-71
2022/12/01 11:05:41;;;;;;;29.17;9.10;;;;;;;4.89;100.00;100845.56;4989077;28;20038;-71
2022/12/01 11:08:21;;;;;;;20.00;5.93;;;;;;;4.86;100.00;100836.03;4969030;28;20069;-71
2022/12/01 11:10:48;;;;;;;29.13;7.50;;;;;;;4.77;100.00;100829.41;5008931;28;20029;-72
2022/12/01 11:13:23;;;;;;;8.70;3.17;;;;;;;4.81;100.00;100836.50;5009140;28;20068;-72
2022/12/01 11:15:55;;;;;;;4.28;1.88;;;;;;;4.72;100.00;100823.13;5008930;28;20030;-71
2022/12/01 11:18:27;;;;;;;2.63;1.50;;;;;;;4.64;100.00;100826.06;5008742;28;20052;-73
2022/12/01 11:21:26;;;;;;;4.43;1.60;;;;;;;4.63;100.00;100808.94;5006706;28;20065;-73
2022/12/01 11:23:53;;;;;;;2.03;1.50;;;;;;;4.54;100.00;100795.53;4953863;29;20047;-71
2022/12/01 11:26:24;;;;;;;4.78;1.70;;;;;;;4.56;100.00;100798.19;4950217;29;20042;-70
2022/12/01 11:29:05;;;;;;;5.13;2.42;;;;;;;4.68;100.00;100811.78;4950523;29;20192;-71
2022/12/01 11:31:40;;;;;;;4.07;2.40;;;;;;;4.67;100.00;100808.38;4950184;29;20125;-70
2022/12/01 11:34:24;;;;;;;5.13;2.70;;;;;;;4.65;100.00;100794.56;4949533;28;20039;-72
2022/12/01 11:37:06;;;;;;;5.78;2.50;;;;;;;4.65;100.00;100794.56;4950335;29;20031;-70